Time;durP1;ratioP1;P1;durP2;ratioP2;P2;SDS_P1;SDS_P2;PMS_P1;PMS_P2;Temp;Humidity;BMP_temperature;BMP_pressure;BME280_temperature;BME280_humidity;BME280_pressure;Samples;Min_cycle;Max_cycle;Signal;HPM_P1;HPM_P2
2022/03/17 00:00:23;;;;;;;39.72;34.45;;;6.70;99.90;;;;;;4993170;28;20033;-73
2022/03/17 00:02:48;;;;;;;39.65;34.85;;;6.70;99.90;;;;;;5007367;28;20027;-73
2022/03/17 00:05:14;;;;;;;38.50;33.55;;;6.70;99.90;;;;;;5004863;28;20018;-72
2022/03/17 00:07:41;;;;;;;38.22;34.13;;;6.70;99.90;;;;;;4996968;28;20030;-72
2022/03/17 00:10:09;;;;;;;38.95;34.53;;;6.70;99.90;;;;;;4994112;28;20018;-73
2022/03/17 00:12:35;;;;;;;41.83;34.45;;;6.70;99.90;;;;;;4994049;28;20023;-72
2022/03/17 00:15:02;;;;;;;40.45;34.80;;;6.70;99.90;;;;;;4994057;28;20417;-72
2022/03/17 00:17:27;;;;;;;42.45;35.50;;;6.70;99.90;;;;;;4993958;28;20028;-72
2022/03/17 00:19:53;;;;;;;38.17;33.70;;;6.70;99.90;;;;;;5004034;28;20128;-73
2022/03/17 00:22:19;;;;;;;38.55;33.15;;;6.70;99.90;;;;;;5001171;28;20022;-73
2022/03/17 00:24:46;;;;;;;39.42;34.78;;;6.70;99.90;;;;;;4993979;28;20026;-73
2022/03/17 00:27:12;;;;;;;40.92;34.45;;;6.70;99.90;;;;;;4996175;28;20022;-72
2022/03/17 00:29:39;;;;;;;39.70;34.80;;;6.60;99.90;;;;;;5003169;28;20109;-72
2022/03/17 00:32:06;;;;;;;38.50;34.30;;;6.60;99.90;;;;;;4993504;28;20023;-73
2022/03/17 00:34:33;;;;;;;37.13;32.72;;;6.60;99.90;;;;;;4993822;28;20492;-72
2022/03/17 00:36:59;;;;;;;37.95;33.80;;;6.60;99.90;;;;;;4992443;28;20035;-72
2022/03/17 00:39:25;;;;;;;37.20;33.10;;;6.60;99.90;;;;;;4993300;28;20026;-72
2022/03/17 00:41:51;;;;;;;41.20;35.28;;;6.60;99.90;;;;;;4997615;28;20160;-72
2022/03/17 00:44:16;;;;;;;38.17;34.15;;;6.60;99.90;;;;;;5002555;28;20117;-72
2022/03/17 00:46:42;;;;;;;41.17;35.15;;;6.60;99.90;;;;;;4993508;28;20113;-72
2022/03/17 00:49:08;;;;;;;37.33;33.28;;;6.60;99.90;;;;;;4993383;28;20025;-72
2022/03/17 00:51:34;;;;;;;40.25;34.80;;;6.70;99.90;;;;;;4992048;28;20030;-72
2022/03/17 00:53:59;;;;;;;41.33;35.20;;;6.60;99.90;;;;;;4993418;28;20064;-71
2022/03/17 00:56:26;;;;;;;38.63;34.30;;;6.70;99.90;;;;;;5009877;28;20064;-71
2022/03/17 00:58:51;;;;;;;38.22;34.13;;;6.50;99.90;;;;;;5001577;28;20030;-71
2022/03/17 01:01:18;;;;;;;40.75;34.30;;;6.60;99.90;;;;;;5006045;28;20035;-71
2022/03/17 01:03:45;;;;;;;38.63;34.45;;;6.60;99.90;;;;;;4991862;28;20117;-71
2022/03/17 01:06:11;;;;;;;38.95;33.97;;;6.60;99.90;;;;;;5009830;28;20026;-72
2022/03/17 01:08:38;;;;;;;40.42;34.92;;;6.60;99.90;;;;;;5002806;28;20042;-72
2022/03/17 01:11:04;;;;;;;41.17;35.90;;;6.60;99.90;;;;;;5005833;28;20124;-72
2022/03/17 01:13:30;;;;;;;40.28;34.40;;;6.60;99.90;;;;;;5002130;28;20160;-72
2022/03/17 01:15:56;;;;;;;41.78;35.83;;;6.60;99.90;;;;;;4994479;28;20032;-72
2022/03/17 01:18:22;;;;;;;39.45;35.35;;;6.60;99.90;;;;;;5004386;28;20026;-72
2022/03/17 01:20:48;;;;;;;37.95;33.45;;;6.50;99.90;;;;;;5017881;22;20053;-75
2022/03/17 01:23:14;;;;;;;41.05;35.88;;;6.50;99.90;;;;;;4992450;28;20030;-76
2022/03/17 01:25:40;;;;;;;40.22;34.78;;;6.60;99.90;;;;;;4992796;28;20030;-77
2022/03/17 01:28:05;;;;;;;40.13;35.70;;;6.50;99.90;;;;;;4992388;28;20030;-76
2022/03/17 01:30:31;;;;;;;41.92;36.10;;;6.50;99.90;;;;;;4996107;28;20029;-77
2022/03/17 01:32:56;;;;;;;39.75;35.35;;;6.50;99.90;;;;;;4994805;28;20026;-77
2022/03/17 01:35:22;;;;;;;40.92;36.25;;;6.50;99.90;;;;;;4977272;28;20038;-76
2022/03/17 01:37:47;;;;;;;41.55;37.05;;;6.40;99.90;;;;;;4985911;28;20033;-77
2022/03/17 01:40:13;;;;;;;41.95;36.80;;;6.50;99.90;;;;;;4981668;28;20084;-77
2022/03/17 01:42:39;;;;;;;41.63;36.60;;;6.40;99.90;;;;;;4984255;28;20026;-77
2022/03/17 01:45:05;;;;;;;42.35;36.65;;;6.40;99.90;;;;;;4986335;28;20422;-76
2022/03/17 01:47:33;;;;;;;43.67;38.47;;;6.40;99.90;;;;;;5001615;28;20027;-77
2022/03/17 01:50:09;;;;;;;39.03;34.17;;;6.40;99.90;;;;;;4988162;28;20029;-77
2022/03/17 01:52:35;;;;;;;41.88;36.70;;;6.40;99.90;;;;;;4983012;28;20030;-77
2022/03/17 01:55:01;;;;;;;43.53;36.80;;;6.40;99.90;;;;;;5005623;28;20527;-76
2022/03/17 01:57:26;;;;;;;43.33;37.30;;;6.50;99.90;;;;;;4983313;28;20050;-76
2022/03/17 01:59:53;;;;;;;43.63;36.63;;;6.40;99.90;;;;;;4997294;28;20041;-76
2022/03/17 02:02:18;;;;;;;43.83;37.75;;;6.40;99.90;;;;;;5000132;28;20022;-76
2022/03/17 02:04:47;;;;;;;40.60;36.30;;;6.40;99.90;;;;;;5005326;28;20029;-76
2022/03/17 02:07:14;;;;;;;43.45;37.67;;;6.40;99.90;;;;;;4986824;28;20049;-76
2022/03/17 02:09:41;;;;;;;43.25;37.53;;;6.40;99.90;;;;;;4998575;28;20097;-77
2022/03/17 02:15:05;;;;;;;42.80;37.58;;;6.50;99.90;;;;;;4973260;28;20065;-76
2022/03/17 02:17:32;;;;;;;43.70;38.10;;;6.40;99.90;;;;;;5003414;28;20023;-75
2022/03/17 02:20:01;;;;;;;41.92;37.08;;;6.50;99.90;;;;;;5003207;28;20029;-75
2022/03/17 02:22:28;;;;;;;43.10;38.50;;;6.50;99.90;;;;;;4993655;28;20105;-75
2022/03/17 02:27:45;;;;;;;40.83;36.42;;;6.40;99.90;;;;;;4988113;28;20040;-74
2022/03/17 02:30:13;;;;;;;43.10;36.65;;;6.40;99.90;;;;;;4998369;28;20497;-76
2022/03/17 02:32:39;;;;;;;41.33;36.58;;;6.40;99.90;;;;;;5002679;28;20396;-75
2022/03/17 02:35:07;;;;;;;44.60;38.45;;;6.40;99.90;;;;;;5005150;28;20026;-76
2022/03/17 02:37:33;;;;;;;44.17;37.75;;;6.40;99.90;;;;;;5001389;28;20080;-75
2022/03/17 02:40:00;;;;;;;42.15;37.00;;;6.40;99.90;;;;;;4995744;28;20027;-75
2022/03/17 02:42:30;;;;;;;42.53;37.17;;;6.50;99.90;;;;;;4991584;28;20543;-76
2022/03/17 02:44:59;;;;;;;42.92;37.80;;;6.40;99.90;;;;;;4995399;28;20018;-76
2022/03/17 02:47:26;;;;;;;43.28;38.00;;;6.40;99.90;;;;;;4983748;28;20117;-75
2022/03/17 02:49:54;;;;;;;41.90;37.20;;;6.40;99.90;;;;;;5005235;28;20629;-76
2022/03/17 02:52:23;;;;;;;44.00;37.97;;;6.40;99.90;;;;;;4985008;28;20049;-75
2022/03/17 02:54:49;;;;;;;46.22;38.63;;;6.40;99.90;;;;;;4980746;28;20123;-75
2022/03/17 02:57:15;;;;;;;45.78;39.00;;;6.40;99.90;;;;;;5000281;28;20097;-75
2022/03/17 02:59:41;;;;;;;42.63;37.92;;;6.30;99.90;;;;;;5004908;28;20536;-76
2022/03/17 03:02:06;;;;;;;42.85;38.22;;;6.30;99.90;;;;;;4987308;28;20020;-77
2022/03/17 03:04:35;;;;;;;44.92;39.75;;;6.20;99.90;;;;;;4984327;28;20454;-77
2022/03/17 03:07:06;;;;;;;42.85;37.60;;;6.30;99.90;;;;;;5003314;28;20022;-76
2022/03/17 03:09:32;;;;;;;44.47;38.80;;;6.30;99.90;;;;;;4990884;28;20027;-75
2022/03/17 03:11:57;;;;;;;44.55;39.40;;;6.30;99.90;;;;;;4995061;28;20029;-75
2022/03/17 03:14:23;;;;;;;44.13;38.92;;;6.20;99.90;;;;;;5008349;28;20030;-74
2022/03/17 03:16:49;;;;;;;43.25;38.28;;;6.20;99.90;;;;;;4977801;28;20053;-74
2022/03/17 03:19:15;;;;;;;44.17;38.70;;;6.20;99.90;;;;;;4995126;28;20069;-75
2022/03/17 03:21:43;;;;;;;46.70;39.72;;;6.10;99.90;;;;;;4977224;28;20053;-75
2022/03/17 03:24:08;;;;;;;45.08;39.33;;;6.10;99.90;;;;;;4990682;28;20448;-74
2022/03/17 03:26:34;;;;;;;44.45;39.22;;;6.10;99.90;;;;;;4989625;28;20046;-74
2022/03/17 03:28:59;;;;;;;43.67;38.80;;;6.10;99.90;;;;;;4978462;28;20531;-74
2022/03/17 03:31:25;;;;;;;41.58;37.00;;;6.20;99.90;;;;;;4988992;28;20060;-74
2022/03/17 03:33:50;;;;;;;41.90;37.38;;;6.20;99.90;;;;;;4983867;28;20465;-74
2022/03/17 03:39:00;;;;;;;43.58;37.83;;;6.20;99.90;;;;;;4994978;28;20109;-76
2022/03/17 03:41:26;;;;;;;42.80;38.25;;;6.30;99.90;;;;;;4994462;28;20109;-75
2022/03/17 03:43:52;;;;;;;43.92;38.65;;;6.20;99.90;;;;;;4988941;28;20042;-74
2022/03/17 03:46:17;;;;;;;47.58;40.08;;;6.20;99.90;;;;;;4995925;28;20109;-75
2022/03/17 03:48:43;;;;;;;42.60;37.95;;;6.20;99.90;;;;;;5001955;28;20096;-75
2022/03/17 03:51:08;;;;;;;46.05;40.08;;;6.30;99.90;;;;;;5000653;28;20022;-76
2022/03/17 03:56:18;;;;;;;43.55;38.80;;;6.30;99.90;;;;;;5007493;28;20127;-76
2022/03/17 03:58:43;;;;;;;48.50;40.60;;;6.20;99.90;;;;;;5003939;28;20475;-75
2022/03/17 04:01:09;;;;;;;46.47;39.67;;;6.20;99.90;;;;;;5000553;28;20033;-76
2022/03/17 04:03:34;;;;;;;45.10;39.80;;;6.20;99.90;;;;;;4997763;28;20171;-76
2022/03/17 04:06:00;;;;;;;44.67;39.85;;;6.20;99.90;;;;;;5013850;28;20030;-74
2022/03/17 04:08:25;;;;;;;46.38;39.88;;;6.20;99.90;;;;;;5005411;28;20027;-76
2022/03/17 04:10:51;;;;;;;47.95;39.15;;;6.20;99.90;;;;;;4989632;28;20116;-75
2022/03/17 04:13:16;;;;;;;45.97;40.97;;;6.20;99.90;;;;;;4976847;28;20046;-77
2022/03/17 04:15:42;;;;;;;45.95;39.53;;;6.10;99.90;;;;;;4994854;28;20080;-77
2022/03/17 04:18:07;;;;;;;46.97;40.55;;;6.20;99.90;;;;;;4982921;28;20034;-77
2022/03/17 04:20:34;;;;;;;45.47;39.38;;;6.20;99.90;;;;;;4969970;28;20040;-76
2022/03/17 04:22:59;;;;;;;45.47;39.80;;;6.10;99.90;;;;;;4986438;28;20030;-76
2022/03/17 04:25:25;;;;;;;47.15;38.67;;;6.10;99.90;;;;;;5010020;28;20026;-75
2022/03/17 04:27:50;;;;;;;43.90;38.60;;;6.10;99.90;;;;;;5004078;28;20031;-75
2022/03/17 04:30:16;;;;;;;45.70;39.28;;;6.10;99.90;;;;;;5006577;28;20469;-74
2022/03/17 04:32:42;;;;;;;45.95;39.92;;;6.10;99.90;;;;;;4993813;28;20034;-76
2022/03/17 04:35:07;;;;;;;46.13;40.40;;;6.10;99.90;;;;;;4993670;28;20126;-75
2022/03/17 04:37:33;;;;;;;45.33;40.35;;;6.10;99.90;;;;;;4985444;28;20022;-74
2022/03/17 04:39:59;;;;;;;46.15;39.92;;;6.10;99.90;;;;;;5013049;28;20022;-74
2022/03/17 04:42:24;;;;;;;47.58;39.63;;;6.10;99.90;;;;;;5003885;28;20030;-74
2022/03/17 04:44:51;;;;;;;44.28;39.28;;;6.10;99.90;;;;;;4992058;28;20041;-74
2022/03/17 04:47:17;;;;;;;44.35;39.45;;;6.10;99.90;;;;;;4995496;28;20032;-74
2022/03/17 04:49:42;;;;;;;45.08;38.75;;;6.10;99.90;;;;;;5012888;28;20372;-73
2022/03/17 04:54:52;;;;;;;44.65;39.58;;;6.00;99.90;;;;;;5013009;28;20033;-74
2022/03/17 04:57:17;;;;;;;46.42;40.10;;;6.00;99.90;;;;;;5013088;28;20030;-76
2022/03/17 04:59:43;;;;;;;45.30;38.95;;;6.10;99.90;;;;;;4995124;28;20093;-75
2022/03/17 05:02:12;;;;;;;45.35;39.78;;;6.00;99.90;;;;;;5004208;28;20045;-77
2022/03/17 05:04:37;;;;;;;52.38;41.17;;;6.00;99.90;;;;;;5011849;28;20027;-77
2022/03/17 05:07:03;;;;;;;47.50;40.97;;;6.10;99.90;;;;;;5004989;28;20104;-76
2022/03/17 05:09:28;;;;;;;46.70;39.67;;;5.90;99.90;;;;;;4999648;28;20097;-76
2022/03/17 05:11:54;;;;;;;44.65;39.17;;;5.80;99.90;;;;;;4995010;28;20025;-77
2022/03/17 05:14:19;;;;;;;46.40;38.58;;;5.80;99.90;;;;;;4994983;28;20428;-75
2022/03/17 05:16:45;;;;;;;46.13;39.95;;;5.90;99.90;;;;;;4992992;28;20059;-76
2022/03/17 05:19:11;;;;;;;49.67;41.13;;;5.90;99.90;;;;;;5011939;28;20396;-77
2022/03/17 05:21:38;;;;;;;46.47;39.75;;;5.90;99.90;;;;;;5014873;28;20072;-77
2022/03/17 05:24:04;;;;;;;44.97;39.72;;;6.00;99.90;;;;;;4981873;28;20032;-76
2022/03/17 05:26:30;;;;;;;49.28;41.60;;;6.00;99.90;;;;;;5000050;28;20230;-75
2022/03/17 05:28:56;;;;;;;49.88;42.78;;;5.90;99.90;;;;;;4988449;28;20129;-76
2022/03/17 05:31:21;;;;;;;46.60;40.83;;;5.70;99.90;;;;;;4992641;28;20037;-75
2022/03/17 05:33:47;;;;;;;45.10;39.88;;;5.60;99.90;;;;;;4992757;28;20160;-75
2022/03/17 05:36:12;;;;;;;49.40;40.22;;;5.70;99.90;;;;;;4992780;28;20042;-75
2022/03/17 05:38:38;;;;;;;48.65;39.10;;;5.80;99.90;;;;;;4988355;28;20030;-75
2022/03/17 05:41:04;;;;;;;45.08;39.92;;;5.90;99.90;;;;;;5003401;28;20034;-76
2022/03/17 05:43:30;;;;;;;47.22;40.03;;;6.00;99.90;;;;;;4999126;28;20500;-75
2022/03/17 05:45:55;;;;;;;44.10;39.38;;;6.10;99.90;;;;;;5001191;28;20026;-75
2022/03/17 05:48:21;;;;;;;44.35;39.55;;;6.10;99.90;;;;;;5005626;28;20026;-74
2022/03/17 05:50:46;;;;;;;46.08;39.55;;;6.10;99.90;;;;;;4985776;28;20026;-76
2022/03/17 05:53:12;;;;;;;48.45;42.22;;;6.10;99.90;;;;;;5007919;28;20034;-75
2022/03/17 05:55:38;;;;;;;48.17;42.00;;;6.10;99.90;;;;;;5003174;28;20033;-76
2022/03/17 05:58:04;;;;;;;52.10;42.55;;;6.10;99.90;;;;;;4999052;28;20104;-75
2022/03/17 06:00:31;;;;;;;48.30;41.00;;;6.20;99.90;;;;;;5000925;28;20548;-75
2022/03/17 06:02:57;;;;;;;47.17;41.88;;;6.20;99.90;;;;;;4974733;28;20100;-75
2022/03/17 06:05:25;;;;;;;47.78;41.50;;;6.30;99.90;;;;;;5002949;28;20018;-76
2022/03/17 06:07:52;;;;;;;47.85;41.53;;;6.30;99.90;;;;;;4998772;28;20026;-76
2022/03/17 06:10:22;;;;;;;48.83;40.65;;;6.30;99.90;;;;;;5000259;28;20033;-76
2022/03/17 06:12:49;;;;;;;48.60;40.30;;;6.30;99.90;;;;;;5005423;28;20037;-74
2022/03/17 06:15:15;;;;;;;48.63;40.42;;;6.30;99.90;;;;;;4992319;28;20029;-75
2022/03/17 06:17:49;;;;;;;46.08;39.30;;;6.40;99.90;;;;;;5005179;28;20026;-75
2022/03/17 06:20:20;;;;;;;46.35;39.85;;;6.40;99.90;;;;;;4991974;28;20030;-74
2022/03/17 06:22:48;;;;;;;47.80;39.72;;;6.40;99.90;;;;;;4978264;28;20037;-74
2022/03/17 06:25:16;;;;;;;47.78;40.10;;;6.50;99.90;;;;;;5005220;28;20365;-75
2022/03/17 06:27:43;;;;;;;47.33;40.63;;;6.50;99.90;;;;;;4992288;28;20085;-76
2022/03/17 06:30:12;;;;;;;47.80;40.53;;;6.50;99.90;;;;;;5005186;28;20022;-75
2022/03/17 06:32:39;;;;;;;46.72;40.38;;;6.60;99.90;;;;;;5000474;28;20026;-75
2022/03/17 06:35:07;;;;;;;48.95;41.30;;;6.60;99.90;;;;;;4981064;28;20449;-75
2022/03/17 06:37:33;;;;;;;46.67;41.42;;;6.60;99.90;;;;;;5014286;28;20048;-74
2022/03/17 06:39:58;;;;;;;46.45;40.25;;;6.60;99.90;;;;;;5013303;28;20450;-75
2022/03/17 06:42:24;;;;;;;49.92;40.15;;;6.70;99.90;;;;;;4995801;28;20022;-75
2022/03/17 06:44:49;;;;;;;45.50;40.17;;;6.70;99.90;;;;;;4997735;28;20034;-75
2022/03/17 06:47:15;;;;;;;48.33;41.30;;;6.70;99.90;;;;;;5007154;28;20029;-75
2022/03/17 06:49:40;;;;;;;45.78;40.72;;;6.70;99.90;;;;;;4997463;28;20099;-75
2022/03/17 06:52:06;;;;;;;46.25;40.75;;;6.80;99.90;;;;;;4989211;28;20144;-76
2022/03/17 06:54:31;;;;;;;50.20;41.47;;;6.80;99.90;;;;;;5008740;28;20053;-75
2022/03/17 06:56:57;;;;;;;51.50;41.97;;;6.80;99.90;;;;;;4986324;28;20454;-76
2022/03/17 06:59:22;;;;;;;50.53;41.45;;;6.80;99.90;;;;;;4984535;28;20034;-75
2022/03/17 07:01:48;;;;;;;48.15;41.72;;;6.90;99.90;;;;;;5007001;28;20062;-75
2022/03/17 07:04:13;;;;;;;53.38;43.25;;;6.80;99.90;;;;;;4989098;28;20029;-75
2022/03/17 07:06:39;;;;;;;50.33;42.13;;;6.80;99.90;;;;;;5003199;28;20080;-76
2022/03/17 07:09:04;;;;;;;51.53;42.42;;;6.90;99.90;;;;;;5000561;28;20053;-75
2022/03/17 07:11:30;;;;;;;46.78;41.20;;;6.90;99.90;;;;;;4995228;28;20026;-75
2022/03/17 07:13:55;;;;;;;50.65;41.35;;;7.00;99.90;;;;;;4995277;28;20077;-75
2022/03/17 07:16:21;;;;;;;50.38;40.92;;;7.10;99.90;;;;;;4995382;28;20102;-75
2022/03/17 07:18:46;;;;;;;49.45;41.75;;;7.00;99.90;;;;;;4995214;28;20027;-75
2022/03/17 07:21:13;;;;;;;47.85;40.50;;;7.00;99.90;;;;;;4994891;28;20487;-75
2022/03/17 07:23:38;;;;;;;52.65;41.78;;;7.00;99.90;;;;;;5019169;22;20054;-72
2022/03/17 07:26:04;;;;;;;52.22;42.72;;;7.10;99.90;;;;;;4994997;28;20026;-73
2022/03/17 07:28:29;;;;;;;50.55;43.55;;;7.10;99.90;;;;;;4995032;28;20538;-71
2022/03/17 07:30:55;;;;;;;50.53;42.00;;;7.10;99.90;;;;;;4994855;28;20037;-72
2022/03/17 07:33:20;;;;;;;50.13;40.97;;;7.10;99.90;;;;;;4982004;28;20448;-71
2022/03/17 07:35:46;;;;;;;53.17;40.92;;;7.20;99.90;;;;;;5003418;28;20501;-71
2022/03/17 07:38:12;;;;;;;48.08;40.92;;;7.20;99.90;;;;;;5007517;28;20073;-71
2022/03/17 07:40:37;;;;;;;50.22;43.30;;;7.20;99.90;;;;;;4990369;28;20435;-72
2022/03/17 07:43:04;;;;;;;49.50;41.45;;;7.20;99.90;;;;;;5000944;28;20407;-71
2022/03/17 07:45:30;;;;;;;50.53;41.97;;;7.30;99.90;;;;;;4998808;28;20015;-72
2022/03/17 07:47:56;;;;;;;48.40;40.97;;;7.30;99.90;;;;;;4973300;28;20019;-71
2022/03/17 07:50:22;;;;;;;48.10;41.05;;;7.40;99.90;;;;;;4994563;28;20393;-71
2022/03/17 07:52:48;;;;;;;49.75;41.63;;;7.40;99.90;;;;;;4993327;28;20507;-71
2022/03/17 07:55:14;;;;;;;49.03;41.55;;;7.50;99.90;;;;;;4988930;28;20030;-72
2022/03/17 07:57:40;;;;;;;49.03;41.50;;;7.60;99.90;;;;;;5007825;28;20076;-71
2022/03/17 08:00:08;;;;;;;48.97;40.83;;;7.70;99.90;;;;;;5001737;28;20491;-72
2022/03/17 08:02:34;;;;;;;46.28;39.92;;;7.80;99.90;;;;;;4999568;28;20053;-71
2022/03/17 08:05:04;;;;;;;48.50;40.78;;;7.80;99.90;;;;;;4993392;28;20027;-72
2022/03/17 08:07:30;;;;;;;49.80;41.28;;;7.80;99.90;;;;;;4994253;28;20352;-71
2022/03/17 08:09:57;;;;;;;49.05;40.60;;;7.80;99.90;;;;;;5002408;28;20018;-71
2022/03/17 08:12:23;;;;;;;49.60;41.55;;;8.00;99.90;;;;;;4984058;28;20025;-72
2022/03/17 08:14:50;;;;;;;48.25;40.72;;;8.00;99.90;;;;;;4983567;28;20026;-72
2022/03/17 08:17:15;;;;;;;47.78;40.20;;;8.00;99.90;;;;;;4991523;28;20117;-72
2022/03/17 08:19:41;;;;;;;54.55;43.25;;;8.10;99.90;;;;;;4986821;28;20157;-72
2022/03/17 08:22:06;;;;;;;48.88;41.08;;;8.10;99.90;;;;;;4999287;28;20046;-72
2022/03/17 08:24:32;;;;;;;50.08;42.28;;;8.10;99.90;;;;;;4994112;28;20026;-73
2022/03/17 08:26:59;;;;;;;46.67;40.15;;;8.20;99.90;;;;;;4979628;28;20034;-72
2022/03/17 08:29:24;;;;;;;47.58;39.75;;;8.30;99.90;;;;;;4994019;28;20042;-72
2022/03/17 08:31:50;;;;;;;47.50;39.83;;;8.30;99.90;;;;;;4980229;28;20059;-72
2022/03/17 08:34:15;;;;;;;53.78;41.20;;;8.40;99.90;;;;;;5002543;28;20376;-72
2022/03/17 08:36:41;;;;;;;45.13;39.08;;;8.50;99.90;;;;;;4997620;28;20041;-72
2022/03/17 08:39:06;;;;;;;45.95;38.15;;;8.50;99.90;;;;;;4993337;28;20042;-72
2022/03/17 08:41:32;;;;;;;46.88;39.40;;;8.70;99.90;;;;;;4993297;28;20034;-72
2022/03/17 08:43:57;;;;;;;46.25;39.67;;;8.70;99.90;;;;;;4993554;28;20109;-72
2022/03/17 08:49:19;;;;;;;44.97;39.03;;;8.70;99.90;;;;;;4985609;28;20037;-72
2022/03/17 08:51:50;;;;;;;47.00;38.92;;;8.60;99.90;;;;;;4992824;28;20026;-73
2022/03/17 08:54:17;;;;;;;45.17;38.05;;;8.60;99.90;;;;;;4993302;28;20118;-72
2022/03/17 08:56:42;;;;;;;46.28;39.45;;;8.60;99.90;;;;;;4993146;28;20145;-71
2022/03/17 08:59:10;;;;;;;47.08;38.35;;;8.50;99.90;;;;;;4995744;28;20034;-72
2022/03/17 09:01:37;;;;;;;50.20;39.15;;;8.60;99.90;;;;;;4980887;28;20085;-75
2022/03/17 09:04:04;;;;;;;45.65;37.97;;;8.60;99.90;;;;;;5003605;28;20026;-72
2022/03/17 09:06:29;;;;;;;48.15;39.20;;;8.60;99.90;;;;;;4993243;28;20034;-72
2022/03/17 09:08:55;;;;;;;48.92;39.28;;;8.50;99.90;;;;;;4991189;28;20630;-72
2022/03/17 09:11:20;;;;;;;44.78;38.47;;;8.50;99.90;;;;;;4990619;28;20034;-72
2022/03/17 09:13:48;;;;;;;49.30;39.22;;;8.40;99.90;;;;;;4992840;28;20031;-72
2022/03/17 09:16:13;;;;;;;47.28;39.97;;;8.50;99.90;;;;;;4992910;28;20026;-72
2022/03/17 09:18:42;;;;;;;45.13;38.38;;;8.50;99.90;;;;;;4992877;28;20059;-72
2022/03/17 09:21:08;;;;;;;48.78;39.13;;;8.50;99.90;;;;;;4991358;28;20045;-72
2022/03/17 09:23:34;;;;;;;46.92;38.33;;;8.40;99.90;;;;;;4992736;28;20107;-72
2022/03/17 09:25:59;;;;;;;47.63;39.67;;;8.40;99.90;;;;;;4991487;28;20535;-72
2022/03/17 09:28:26;;;;;;;47.25;39.08;;;8.50;99.90;;;;;;4991423;28;20028;-72
2022/03/17 09:30:53;;;;;;;49.42;39.40;;;8.50;99.90;;;;;;4992917;28;20018;-72
2022/03/17 09:33:18;;;;;;;48.45;40.45;;;8.50;99.90;;;;;;4992964;28;20034;-72
2022/03/17 09:35:44;;;;;;;47.13;39.25;;;8.60;99.90;;;;;;4992663;28;20026;-72
2022/03/17 09:38:10;;;;;;;47.75;38.08;;;8.70;99.90;;;;;;4992548;28;20050;-72
2022/03/17 09:40:38;;;;;;;43.90;37.83;;;8.70;99.90;;;;;;4992504;28;20388;-72
2022/03/17 09:43:19;;;;;;;47.30;38.88;;;8.80;99.90;;;;;;4991309;28;20057;-72
2022/03/17 09:45:46;;;;;;;47.42;39.83;;;8.80;99.90;;;;;;4992679;28;20022;-72
2022/03/17 09:48:14;;;;;;;48.45;39.47;;;8.80;99.90;;;;;;4992385;28;20081;-72
2022/03/17 09:50:40;;;;;;;49.03;39.08;;;8.80;99.90;;;;;;4992266;28;20018;-72
2022/03/17 09:53:07;;;;;;;48.15;38.58;;;8.80;99.90;;;;;;4992344;28;20053;-72
2022/03/17 09:55:34;;;;;;;48.30;40.03;;;8.80;99.90;;;;;;4991128;28;20041;-72
2022/03/17 09:58:00;;;;;;;50.17;39.45;;;8.90;99.90;;;;;;4990907;28;20117;-71
2022/03/17 10:00:47;;;;;;;47.67;39.47;;;9.00;99.90;;;;;;4992070;28;20061;-71
2022/03/17 10:03:11;;;;;;;47.00;38.88;;;8.90;99.90;;;;;;4991065;28;20042;-71
2022/03/17 10:05:37;;;;;;;51.90;37.53;;;9.10;99.90;;;;;;4992220;28;20137;-72
2022/03/17 10:08:03;;;;;;;45.28;38.00;;;9.10;99.90;;;;;;4987566;28;20560;-71
2022/03/17 10:10:39;;;;;;;47.55;38.40;;;9.20;99.90;;;;;;4990971;28;20030;-72
2022/03/17 10:13:06;;;;;;;47.83;39.45;;;9.20;99.90;;;;;;4996106;28;20038;-72
2022/03/17 10:15:32;;;;;;;45.30;38.90;;;9.40;99.90;;;;;;4998528;28;20037;-72
2022/03/17 10:17:57;;;;;;;46.25;38.15;;;9.40;99.90;;;;;;4998746;28;20397;-72
2022/03/17 10:20:29;;;;;;;46.42;38.63;;;9.50;99.90;;;;;;4986867;28;20038;-72
2022/03/17 10:22:57;;;;;;;42.30;36.58;;;9.60;99.90;;;;;;5001179;28;20094;-71
2022/03/17 10:25:25;;;;;;;45.28;37.25;;;9.60;99.90;;;;;;4996400;28;20026;-71
2022/03/17 10:27:54;;;;;;;44.38;37.17;;;9.70;99.90;;;;;;4997765;28;20029;-71
2022/03/17 10:30:30;;;;;;;45.03;36.78;;;9.50;99.90;;;;;;5001261;28;20022;-72
2022/03/17 10:32:57;;;;;;;48.22;35.58;;;9.50;99.90;;;;;;4998527;28;20026;-71
2022/03/17 10:35:33;;;;;;;44.60;36.22;;;9.60;99.90;;;;;;5003402;28;20108;-71
2022/03/17 10:38:12;;;;;;;44.90;36.72;;;9.60;99.90;;;;;;4992137;28;20023;-71
2022/03/17 10:40:38;;;;;;;44.60;36.42;;;9.60;99.90;;;;;;4998398;28;20026;-72
2022/03/17 10:43:14;;;;;;;44.67;35.60;;;9.60;99.90;;;;;;4999873;28;20484;-72
2022/03/17 10:45:39;;;;;;;46.78;36.47;;;9.70;99.90;;;;;;5006743;28;20022;-72
2022/03/17 10:48:06;;;;;;;43.85;35.72;;;9.80;99.90;;;;;;4998294;28;20030;-72
2022/03/17 10:50:38;;;;;;;46.78;36.38;;;9.80;99.90;;;;;;4998187;28;20396;-72
2022/03/17 10:53:04;;;;;;;44.35;36.45;;;9.90;99.90;;;;;;4994793;28;20015;-72
2022/03/17 10:55:31;;;;;;;43.42;35.90;;;9.90;99.90;;;;;;4998763;28;20025;-72
2022/03/17 10:58:18;;;;;;;38.90;33.75;;;10.00;99.90;;;;;;4984905;28;20548;-71
2022/03/17 11:00:57;;;;;;;44.63;35.72;;;9.90;99.90;;;;;;4991011;28;20034;-72
2022/03/17 11:03:23;;;;;;;43.25;34.13;;;9.90;99.90;;;;;;4998084;28;20030;-72
2022/03/17 11:05:51;;;;;;;41.10;34.60;;;10.00;99.90;;;;;;4996985;28;20023;-72
2022/03/17 11:08:18;;;;;;;44.05;34.47;;;10.00;99.90;;;;;;5006915;28;20029;-72
2022/03/17 11:10:44;;;;;;;40.22;32.92;;;10.00;99.90;;;;;;4987453;28;20033;-71
2022/03/17 11:13:11;;;;;;;43.70;32.67;;;10.00;99.90;;;;;;4978707;28;20376;-72
2022/03/17 11:15:38;;;;;;;41.08;32.67;;;10.20;99.90;;;;;;4992676;28;20022;-72
2022/03/17 11:18:06;;;;;;;42.08;34.83;;;10.30;99.90;;;;;;4997617;28;20076;-72
2022/03/17 11:20:33;;;;;;;40.83;34.00;;;10.20;99.90;;;;;;4997342;28;20134;-71
2022/03/17 11:23:18;;;;;;;40.42;33.60;;;10.10;99.90;;;;;;4996509;28;20026;-72
2022/03/17 11:25:58;;;;;;;41.80;35.08;;;10.20;99.90;;;;;;4989679;28;20021;-72
2022/03/17 11:28:35;;;;;;;45.40;36.92;;;10.00;99.90;;;;;;4993994;28;20373;-72
2022/03/17 11:31:03;;;;;;;43.25;35.40;;;9.90;99.90;;;;;;4992034;28;20026;-72
2022/03/17 11:33:44;;;;;;;44.28;36.67;;;10.00;99.90;;;;;;4994557;28;20026;-72
2022/03/17 11:36:10;;;;;;;37.75;31.85;;;10.00;99.90;;;;;;4991595;28;20018;-72
2022/03/17 11:38:37;;;;;;;36.28;31.00;;;10.00;99.90;;;;;;4998620;28;20092;-72
2022/03/17 11:41:15;;;;;;;37.78;30.42;;;9.90;99.90;;;;;;4996053;28;20037;-72
2022/03/17 11:43:44;;;;;;;34.78;29.40;;;10.10;99.90;;;;;;4997933;28;20494;-72
2022/03/17 11:46:15;;;;;;;36.95;30.75;;;10.20;99.90;;;;;;4994320;28;20081;-72
2022/03/17 11:48:42;;;;;;;36.97;29.08;;;10.30;99.90;;;;;;4989802;28;20049;-72
2022/03/17 11:51:10;;;;;;;39.83;30.75;;;10.40;99.90;;;;;;4993447;28;20035;-72
2022/03/17 11:53:47;;;;;;;41.20;32.92;;;10.40;99.90;;;;;;4998767;28;20022;-72
2022/03/17 11:56:47;;;;;;;41.80;34.38;;;10.30;99.90;;;;;;4997977;28;20046;-71
2022/03/17 11:59:16;;;;;;;42.75;33.92;;;10.40;99.90;;;;;;4996318;28;20022;-71
2022/03/17 12:01:44;;;;;;;41.15;32.63;;;10.40;99.90;;;;;;4998997;28;20431;-71
2022/03/17 12:04:25;;;;;;;42.70;34.35;;;10.30;99.90;;;;;;4994457;28;20026;-71
2022/03/17 12:06:55;;;;;;;44.45;33.38;;;10.30;99.90;;;;;;4997522;28;20025;-71
2022/03/17 12:09:31;;;;;;;43.40;33.83;;;10.30;99.90;;;;;;4997890;28;20022;-72
2022/03/17 12:11:57;;;;;;;42.22;34.53;;;10.30;99.90;;;;;;4996316;28;20100;-71
2022/03/17 12:14:24;;;;;;;48.47;35.78;;;10.30;99.90;;;;;;4994088;28;20030;-71
2022/03/17 12:17:19;;;;;;;44.42;35.67;;;10.40;99.90;;;;;;4997895;28;20026;-71
2022/03/17 12:19:51;;;;;;;46.03;38.60;;;10.40;99.90;;;;;;4989779;28;20025;-71
2022/03/17 12:22:39;;;;;;;45.33;37.53;;;10.20;99.90;;;;;;4998692;28;20105;-71
2022/03/17 12:25:19;;;;;;;50.35;38.42;;;10.30;99.90;;;;;;4993178;28;20037;-71
2022/03/17 12:27:51;;;;;;;44.88;36.97;;;10.00;99.90;;;;;;4991337;28;20105;-71
2022/03/17 12:30:18;;;;;;;43.25;37.03;;;10.00;99.90;;;;;;4990665;28;20030;-70
2022/03/17 12:32:50;;;;;;;45.85;36.67;;;10.10;99.90;;;;;;4993329;28;20026;-71
2022/03/17 12:35:17;;;;;;;47.55;37.00;;;10.30;99.90;;;;;;4994449;28;20025;-71
2022/03/17 12:37:44;;;;;;;48.53;39.10;;;10.20;99.90;;;;;;4998376;28;20376;-71
2022/03/17 12:40:20;;;;;;;44.35;35.55;;;10.30;99.90;;;;;;4992276;28;20033;-73
2022/03/17 12:42:51;;;;;;;42.50;34.95;;;10.40;99.90;;;;;;4989141;28;20033;-71
2022/03/17 12:45:21;;;;;;;47.58;37.75;;;10.70;99.90;;;;;;4993510;28;20502;-71
2022/03/17 12:47:58;;;;;;;47.67;35.63;;;10.80;99.90;;;;;;4993840;28;20113;-71
2022/03/17 12:50:27;;;;;;;43.50;34.78;;;10.80;99.90;;;;;;4993463;28;20454;-71
2022/03/17 12:52:52;;;;;;;44.80;35.28;;;10.80;99.90;;;;;;4992101;28;20022;-72